Time;durP1;ratioP1;P1;durP2;ratioP2;P2;SDS_P1;SDS_P2;PMS_P1;PMS_P2;Temp;Humidity;BMP_temperature;BMP_pressure;BME280_temperature;BME280_humidity;BME280_pressure;Samples;Min_cycle;Max_cycle;Signal;HPM_P1;HPM_P2
2023/01/03 00:00:04;;;;;;;2.77;2.20;;;;;;;9.21;54.33;101011.31;10424958;28;20566;-36
2023/01/03 00:05:06;;;;;;;2.70;2.37;;;;;;;8.32;55.46;100994.66;10449383;28;20227;-36
2023/01/03 00:10:10;;;;;;;3.20;2.20;;;;;;;9.14;54.64;101004.84;10451413;28;20268;-35
2023/01/03 00:15:15;;;;;;;2.77;2.53;;;;;;;10.27;52.70;100960.06;10447255;28;20231;-38
2023/01/03 00:20:16;;;;;;;2.20;2.10;;;;;;;11.60;49.57;101013.53;10449858;28;20267;-36
2023/01/03 00:25:18;;;;;;;2.93;2.40;;;;;;;11.58;48.68;101023.56;10445768;28;20234;-36
2023/01/03 00:30:20;;;;;;;2.60;2.40;;;;;;;10.77;50.31;101035.47;10424211;28;20230;-36
2023/01/03 00:35:22;;;;;;;3.40;2.80;;;;;;;10.57;49.34;101050.81;10440232;28;20240;-35
2023/01/03 00:40:24;;;;;;;3.57;2.77;;;;;;;10.08;50.98;101064.53;10451268;28;20239;-35
2023/01/03 00:45:26;;;;;;;4.03;3.00;;;;;;;10.49;50.85;101038.19;10439476;28;20231;-37
2023/01/03 00:50:36;;;;;;;4.47;2.70;;;;;;;11.16;49.81;101011.78;10444921;28;20709;-35
2023/01/03 00:55:38;;;;;;;2.67;2.47;;;;;;;11.08;49.93;101011.75;10439424;28;20236;-37
2023/01/03 01:00:39;;;;;;;3.30;3.00;;;;;;;12.45;46.72;101068.94;10444640;28;20240;-36
2023/01/03 01:05:41;;;;;;;3.40;3.10;;;;;;;11.28;49.00;101049.88;10446916;28;20796;-38
2023/01/03 01:11:00;;;;;;;3.77;3.00;;;;;;;11.57;48.41;101044.16;10439838;28;20599;-38
2023/01/03 01:16:14;;;;;;;3.43;2.40;;;;;;;12.34;46.70;101068.25;10438487;28;20709;-37
2023/01/03 01:21:21;;;;;;;3.23;2.73;;;;;;;10.49;50.06;101076.50;10444006;28;20238;-38
2023/01/03 01:26:23;;;;;;;3.20;2.70;;;;;;;10.93;49.24;101022.19;10436394;28;20998;-36
2023/01/03 01:31:26;;;;;;;2.80;2.60;;;;;;;12.34;46.98;101081.69;10446048;28;20934;-38
2023/01/03 01:36:31;;;;;;;3.50;2.60;;;;;;;11.92;47.27;101085.25;10423114;28;20275;-39
2023/01/03 01:46:56;;;;;;;4.20;2.90;;;;;;;11.50;47.48;101066.41;10439960;28;20236;-35
2023/01/03 01:51:57;;;;;;;2.97;2.77;;;;;;;11.80;46.74;101092.75;10445179;28;20242;-36
2023/01/03 01:56:59;;;;;;;3.23;3.03;;;;;;;11.84;46.21;101097.78;10439318;28;20232;-38
2023/01/03 02:02:01;;;;;;;3.97;3.10;;;;;;;11.83;47.38;101078.19;10440151;28;20238;-38
2023/01/03 02:07:05;;;;;;;4.07;2.90;;;;;;;12.10;46.48;101087.84;10437921;28;20663;-37
2023/01/03 02:17:52;;;;;;;3.10;2.90;;;;;;;11.20;48.49;101057.84;10443934;28;20231;-38
2023/01/03 02:23:24;;;;;;;3.20;3.00;;;;;;;10.85;49.02;101056.97;10435852;28;20263;-36
2023/01/03 02:28:29;;;;;;;3.17;2.90;;;;;;;10.56;49.05;101070.53;10419350;28;20238;-38
2023/01/03 02:33:39;;;;;;;2.90;2.53;;;;;;;10.63;49.82;101063.56;10437623;28;20228;-38
2023/01/03 02:38:52;;;;;;;3.53;3.23;;;;;;;10.33;49.56;101055.78;10445557;28;20705;-38
2023/01/03 02:44:15;;;;;;;4.03;3.10;;;;;;;10.59;49.35;101027.41;10430907;28;20870;-37
2023/01/03 02:49:23;;;;;;;5.40;3.17;;;;;;;11.59;48.37;101012.69;10444980;28;20224;-38
2023/01/03 02:54:40;;;;;;;4.23;3.20;;;;;;;11.64;48.34;101025.63;10433565;28;20243;-38
2023/01/03 02:59:48;;;;;;;3.47;2.83;;;;;;;11.02;48.91;101042.69;10447100;28;20243;-37
2023/01/03 03:04:54;;;;;;;3.27;2.67;;;;;;;10.47;50.10;101043.69;10438607;28;20247;-37
2023/01/03 03:15:23;;;;;;;3.20;2.90;;;;;;;10.96;49.38;101040.63;10436408;28;20325;-38
2023/01/03 03:25:50;;;;;;;3.07;2.77;;;;;;;11.08;49.22;101001.03;10431459;28;20246;-35
2023/01/03 03:30:57;;;;;;;3.17;2.97;;;;;;;10.46;49.23;101038.50;10439807;28;20258;-37
2023/01/03 03:36:14;;;;;;;3.63;3.10;;;;;;;10.99;49.19;101013.53;10430033;28;20290;-38
2023/01/03 03:47:06;;;;;;;3.50;3.10;;;;;;;10.20;49.77;101025.88;10434579;28;20243;-38
2023/01/03 03:52:13;;;;;;;3.97;3.57;;;;;;;11.25;48.60;100999.28;10441420;28;20293;-38
2023/01/03 03:57:30;;;;;;;3.93;3.57;;;;;;;10.47;49.40;101024.97;10440044;28;20238;-37
2023/01/03 04:02:33;;;;;;;3.17;2.83;;;;;;;10.59;49.51;101028.25;10435470;28;20236;-35
2023/01/03 04:07:36;;;;;;;4.30;3.07;;;;;;;10.91;48.59;101001.94;10445562;28;20243;-36
2023/01/03 04:12:38;;;;;;;4.33;3.17;;;;;;;10.71;48.56;101018.13;10440814;28;20394;-37
2023/01/03 04:17:40;;;;;;;3.30;2.80;;;;;;;10.79;48.81;101018.25;10445907;28;20242;-37
2023/01/03 04:22:42;;;;;;;2.87;2.50;;;;;;;9.85;49.48;101030.19;10446638;28;20248;-37
2023/01/03 04:27:43;;;;;;;5.10;3.00;;;;;;;10.31;49.36;101049.75;10442806;28;20609;-37
2023/01/03 04:32:45;;;;;;;3.30;3.07;;;;;;;10.87;48.44;101022.81;10444349;28;20238;-37
2023/01/03 04:37:47;;;;;;;3.57;3.27;;;;;;;10.58;48.32;101052.50;10444557;28;20247;-36
2023/01/03 04:48:09;;;;;;;3.73;2.80;;;;;;;12.08;45.86;101075.56;10448053;28;20231;-35
2023/01/03 04:53:13;;;;;;;3.20;3.00;;;;;;;10.64;47.85;101070.63;10442964;28;20236;-37
2023/01/03 04:58:15;;;;;;;3.60;3.30;;;;;;;10.50;47.93;101090.75;10444570;28;20712;-37
2023/01/03 05:03:17;;;;;;;3.47;2.87;;;;;;;10.88;47.82;101064.66;10438918;28;20327;-37
2023/01/03 05:08:28;;;;;;;3.87;3.00;;;;;;;10.86;47.75;101064.81;10449454;28;20693;-37
2023/01/03 05:13:33;;;;;;;4.13;3.20;;;;;;;10.05;49.02;101079.03;10439186;28;20236;-37
2023/01/03 05:18:35;;;;;;;2.93;2.70;;;;;;;11.28;47.09;101060.59;10439867;28;20247;-36
2023/01/03 05:28:57;;;;;;;3.17;2.97;;;;;;;10.42;48.21;101085.31;10442032;28;20324;-37
2023/01/03 05:34:00;;;;;;;3.30;3.00;;;;;;;10.36;48.59;101099.28;10441425;28;20315;-34
2023/01/03 05:39:02;;;;;;;6.07;4.37;;;;;;;10.85;47.33;101065.00;10448961;28;20859;-37
2023/01/03 05:44:05;;;;;;;11.43;6.87;;;;;;;11.36;46.46;101078.56;10439655;28;20233;-37
2023/01/03 05:49:07;;;;;;;7.97;5.50;;;;;;;10.44;47.59;101105.53;10447771;28;20238;-37
2023/01/03 05:54:13;;;;;;;6.10;4.20;;;;;;;10.96;47.05;101088.00;10445771;28;20251;-36
2023/01/03 05:59:15;;;;;;;8.90;6.13;;;;;;;9.65;49.09;101090.91;10441554;28;20244;-37
2023/01/03 06:04:16;;;;;;;12.23;7.10;;;;;;;10.21;47.67;101083.75;10441486;28;20436;-37
2023/01/03 06:09:18;;;;;;;5.37;4.30;;;;;;;10.46;47.77;101084.00;10441781;28;20272;-35
2023/01/03 06:14:20;;;;;;;7.17;4.43;;;;;;;9.07;50.08;101042.97;10441710;28;20225;-37
2023/01/03 06:19:22;;;;;;;6.53;5.80;;;;;;;10.31;48.16;101095.22;10443783;28;20235;-38
2023/01/03 06:24:23;;;;;;;7.80;5.87;;;;;;;10.41;48.01;101083.59;10442515;28;20604;-35
2023/01/03 06:29:25;;;;;;;7.17;5.60;;;;;;;10.68;47.61;101082.69;10440529;28;20263;-36
2023/01/03 06:34:27;;;;;;;5.50;4.60;;;;;;;10.70;47.56;101086.09;10432209;28;20229;-37
2023/01/03 06:39:28;;;;;;;5.63;5.03;;;;;;;10.60;48.01;101104.88;10441475;28;20234;-37
2023/01/03 06:44:30;;;;;;;5.63;4.40;;;;;;;9.71;49.29;101100.97;10436931;28;20232;-36
2023/01/03 06:55:06;;;;;;;11.27;6.90;;;;;;;7.58;54.15;100985.25;10406207;28;20240;-37
2023/01/03 07:00:09;;;;;;;9.63;6.37;;;;;;;8.02;53.74;101031.97;10433978;28;20268;-37
2023/01/03 07:05:11;;;;;;;6.07;5.30;;;;;;;8.25;53.85;101055.72;10445462;28;20239;-37
2023/01/03 07:10:13;;;;;;;6.47;5.27;;;;;;;9.40;51.00;101061.16;10419947;28;20795;-36
2023/01/03 07:15:14;;;;;;;18.57;10.77;;;;;;;8.74;51.36;101075.28;10437937;28;20238;-36
2023/01/03 07:20:16;;;;;;;9.17;7.33;;;;;;;8.49;52.74;101090.03;10433048;28;20229;-37
2023/01/03 07:25:18;;;;;;;9.50;6.37;;;;;;;8.78;52.71;101081.19;10441006;28;20253;-36
2023/01/03 07:30:20;;;;;;;10.33;6.80;;;;;;;9.30;51.06;101075.50;10436666;28;20238;-36
2023/01/03 07:35:22;;;;;;;11.47;9.03;;;;;;;9.46;50.32;101085.59;10440902;28;20243;-37
2023/01/03 07:40:23;;;;;;;11.70;8.83;;;;;;;9.90;49.22;101069.84;10434695;28;20235;-37
2023/01/03 07:45:25;;;;;;;11.10;7.30;;;;;;;9.54;49.71;101099.91;10444994;28;20755;-37
2023/01/03 07:50:27;;;;;;;7.00;5.63;;;;;;;8.45;52.68;101100.13;10442857;28;20235;-36
2023/01/03 07:55:28;;;;;;;5.07;4.40;;;;;;;6.57;57.33;101051.47;10445437;28;20235;-36
2023/01/03 08:00:30;;;;;;;6.43;4.20;;;;;;;8.68;53.22;101089.19;10449882;28;20316;-38
2023/01/03 08:05:34;;;;;;;5.40;4.03;;;;;;;7.91;54.00;101118.25;10449328;28;20239;-36
2023/01/03 08:15:56;;;;;;;11.83;9.13;;;;;;;10.27;50.04;101083.13;10446587;28;20240;-37
2023/01/03 08:20:58;;;;;;;4.97;4.37;;;;;;;7.32;54.89;101076.25;10446075;28;20706;-37
2023/01/03 08:26:02;;;;;;;3.70;3.30;;;;;;;8.44;55.07;101129.63;10450452;28;20244;-37
2023/01/03 08:31:26;;;;;;;4.40;3.03;;;;;;;9.34;52.51;101100.97;10449418;28;20332;-36
2023/01/03 08:36:34;;;;;;;4.10;3.17;;;;;;;8.76;52.63;101156.06;10442071;28;20232;-36
2023/01/03 08:41:45;;;;;;;4.10;3.47;;;;;;;8.21;54.44;101169.81;10447521;28;20244;-37
2023/01/03 08:46:52;;;;;;;3.40;3.10;;;;;;;8.84;53.48;101158.00;10441750;28;20241;-37
2023/01/03 08:51:54;;;;;;;3.40;3.20;;;;;;;9.32;52.62;101125.16;10433602;28;20275;-36
2023/01/03 08:56:55;;;;;;;4.70;4.00;;;;;;;8.77;52.74;101160.41;10445534;28;20236;-37
2023/01/03 09:02:00;;;;;;;5.00;3.40;;;;;;;9.47;51.15;101149.59;10443532;28;20224;-36
2023/01/03 09:07:03;;;;;;;4.00;3.60;;;;;;;9.29;51.72;101204.72;10430343;28;20675;-37
2023/01/03 09:12:04;;;;;;;4.80;4.23;;;;;;;9.36;51.86;101192.50;10445511;28;20239;-37
2023/01/03 09:17:06;;;;;;;5.77;4.17;;;;;;;11.75;47.73;101210.38;10451279;28;20235;-36
2023/01/03 09:22:08;;;;;;;7.87;6.20;;;;;;;9.06;51.64;101199.66;10447022;28;20898;-37
2023/01/03 09:27:10;;;;;;;4.17;3.77;;;;;;;10.62;50.38;101193.06;10442061;28;20271;-37
2023/01/03 09:32:12;;;;;;;8.27;4.83;;;;;;;10.05;51.79;101215.44;10445171;28;20788;-36
2023/01/03 09:37:14;;;;;;;4.90;4.40;;;;;;;10.58;50.55;101195.22;10447212;28;20245;-36
2023/01/03 09:47:45;;;;;;;8.00;5.17;;;;;;;9.33;53.44;101232.84;10445638;28;20228;-37
2023/01/03 10:04:04;;;;;;;5.73;4.80;;;;;;;10.20;51.40;101215.81;10439327;28;20246;-37
2023/01/03 10:09:06;;;;;;;7.60;6.60;;;;;;;10.36;51.95;101238.41;10460724;22;20715;-35
2023/01/03 10:14:19;;;;;;;7.27;6.33;;;;;;;11.29;50.76;101212.34;10440114;28;20235;-36
2023/01/03 10:19:32;;;;;;;7.30;5.47;;;;;;;10.82;49.98;101213.41;10442818;28;20223;-37
2023/01/03 10:25:13;;;;;;;6.57;5.37;;;;;;;11.26;50.62;101212.66;10444013;28;20235;-37
2023/01/03 10:30:18;;;;;;;5.63;4.50;;;;;;;9.80;53.27;101203.50;10437030;28;20242;-37
2023/01/03 10:35:33;;;;;;;5.57;4.43;;;;;;;10.61;50.87;101205.59;10444089;28;20269;-36
2023/01/03 10:40:40;;;;;;;6.40;4.80;;;;;;;11.09;50.12;101202.78;10448239;28;20250;-37
2023/01/03 10:46:00;;;;;;;5.30;4.80;;;;;;;11.17;50.59;101193.00;10446813;28;20263;-37
2023/01/03 10:51:05;;;;;;;4.73;4.23;;;;;;;10.30;51.45;101200.56;10445635;28;20446;-37
2023/01/03 10:56:07;;;;;;;6.43;4.13;;;;;;;12.05;49.38;101237.72;10444860;28;20309;-35
2023/01/03 11:06:19;;;;;;;3.90;3.37;;;;;;;7.09;59.98;101164.25;10557987;27;20323;-61
2023/01/03 11:11:38;;;;;;;5.30;4.07;;;;;;;7.76;58.48;101142.66;10503399;28;20226;-60
2023/01/03 11:16:40;;;;;;;4.60;3.60;;;;;;;7.84;57.93;101146.38;10502940;28;20398;-62
2023/01/03 11:21:55;;;;;;;4.00;3.60;;;;;;;7.85;57.93;101147.25;10497006;28;20344;-61
2023/01/03 11:27:10;;;;;;;4.67;4.20;;;;;;;7.81;58.07;101146.59;10500841;28;20235;-62
2023/01/03 11:32:17;;;;;;;6.33;4.67;;;;;;;8.02;57.27;101151.09;10501237;28;20973;-62
2023/01/03 11:37:31;;;;;;;4.97;4.40;;;;;;;9.50;55.64;101154.66;10503969;28;20240;-60
2023/01/03 11:42:42;;;;;;;4.13;3.73;;;;;;;8.75;55.89;101164.22;10503050;28;20230;-59
2023/01/03 11:48:05;;;;;;;6.63;5.23;;;;;;;8.78;57.20;101158.59;10498847;28;20249;-62
2023/01/03 11:53:19;;;;;;;5.73;4.87;;;;;;;8.91;56.55;101158.34;10502812;28;20742;-62
2023/01/03 11:58:36;;;;;;;4.67;3.87;;;;;;;8.71;57.02;101152.09;10494940;28;20224;-59
2023/01/03 12:04:06;;;;;;;4.50;4.10;;;;;;;8.62;56.15;101137.78;10497809;28;20226;-59
2023/01/03 12:09:26;;;;;;;4.93;4.17;;;;;;;8.53;56.58;101136.78;10498680;28;20230;-63
2023/01/03 12:14:45;;;;;;;5.10;4.47;;;;;;;9.14;55.54;101164.25;10492513;28;20887;-61
2023/01/03 12:20:09;;;;;;;5.67;3.77;;;;;;;9.15;54.84;101157.94;10475303;28;20357;-63
2023/01/03 12:25:25;;;;;;;4.93;3.43;;;;;;;9.38;54.81;101162.00;10432753;28;20236;-61
2023/01/03 12:30:29;;;;;;;4.00;3.60;;;;;;;10.23;53.89;101199.47;10467210;28;20256;-61
2023/01/03 12:35:46;;;;;;;3.57;3.23;;;;;;;10.04;53.70;101179.00;10471056;28;20255;-61
2023/01/03 12:41:03;;;;;;;4.10;3.70;;;;;;;8.45;56.56;101158.81;10476484;28;20241;-61
2023/01/03 12:46:28;;;;;;;4.33;2.90;;;;;;;8.83;54.96;101167.88;10467780;28;20241;-60
2023/01/03 12:51:30;;;;;;;4.93;3.70;;;;;;;9.72;53.52;101152.59;10516027;28;20325;-61
2023/01/03 12:56:57;;;;;;;2.93;2.67;;;;;;;8.84;54.04;101158.88;10514732;28;20231;-61
2023/01/03 13:02:12;;;;;;;4.17;3.00;;;;;;;10.08;53.05;101174.19;10516431;28;20238;-61
2023/01/03 13:07:23;;;;;;;4.33;2.70;;;;;;;10.97;50.69;101228.97;10511321;28;20218;-60
2023/01/03 13:12:29;;;;;;;2.70;2.50;;;;;;;9.77;52.15;101171.75;10516755;28;20826;-59
2023/01/03 13:17:41;;;;;;;2.53;2.40;;;;;;;8.42;53.81;101169.75;10514117;28;20243;-61
2023/01/03 13:23:16;;;;;;;2.73;2.10;;;;;;;8.93;53.07;101178.59;10506671;28;20230;-62
2023/01/03 13:28:17;;;;;;;3.87;2.20;;;;;;;9.76;51.85;101172.72;10483063;28;20318;-61
2023/01/03 13:33:19;;;;;;;3.30;2.37;;;;;;;9.45;52.45;101172.09;10501994;28;20281;-61
2023/01/03 13:38:36;;;;;;;5.03;3.17;;;;;;;9.02;52.71;101176.91;10479498;28;20650;-61
2023/01/03 13:43:37;;;;;;;3.13;2.40;;;;;;;9.50;52.95;101177.84;10513593;28;20722;-61
2023/01/03 13:48:52;;;;;;;3.60;3.00;;;;;;;9.95;52.17;101185.22;10526658;28;20299;-59
2023/01/03 13:53:56;;;;;;;2.50;2.30;;;;;;;10.49;51.38;101234.41;10512287;28;20234;-59
2023/01/03 13:59:13;;;;;;;2.63;2.43;;;;;;;8.94;53.63;101180.25;10519943;28;20231;-61
2023/01/03 14:04:29;;;;;;;4.03;2.47;;;;;;;10.00;51.82;101184.78;10515632;28;20699;-61
2023/01/03 14:09:59;;;;;;;3.40;2.40;;;;;;;9.26;53.45;101191.66;10512414;28;20241;-61
2023/01/03 14:15:13;;;;;;;2.97;2.60;;;;;;;8.97;53.42;101188.00;10520322;28;20243;-61
2023/01/03 14:20:33;;;;;;;2.90;2.70;;;;;;;9.35;52.67;101186.31;10521445;28;20233;-61
2023/01/03 14:25:37;;;;;;;2.90;1.80;;;;;;;8.66;53.76;101173.88;10510231;28;20238;-61
2023/01/03 14:30:39;;;;;;;3.17;2.30;;;;;;;8.91;53.61;101164.53;10518339;28;20226;-60
2023/01/03 14:35:43;;;;;;;3.10;2.80;;;;;;;9.03;52.91;101163.41;10511401;28;20235;-61
2023/01/03 14:40:47;;;;;;;3.97;2.50;;;;;;;9.31;52.75;101171.53;10515587;28;20579;-61
2023/01/03 14:45:53;;;;;;;2.43;2.23;;;;;;;9.64;53.43;101171.22;10518655;28;20655;-61
2023/01/03 14:50:55;;;;;;;4.37;2.50;;;;;;;9.81;52.57;101175.81;10515787;28;20233;-58
2023/01/03 14:55:57;;;;;;;3.47;3.03;;;;;;;9.37;53.81;101160.28;10521439;28;20337;-61
2023/01/03 15:01:04;;;;;;;3.67;2.90;;;;;;;9.57;53.10;101170.94;10517486;28;20234;-61
2023/01/03 15:06:25;;;;;;;5.37;2.87;;;;;;;9.25;53.70;101179.28;10499360;28;20310;-64
2023/01/03 15:11:55;;;;;;;4.70;3.03;;;;;;;8.92;54.28;101168.03;10497841;28;20234;-61
2023/01/03 15:17:19;;;;;;;4.43;3.40;;;;;;;9.15;54.12;101182.81;10500428;28;20816;-59
2023/01/03 15:22:25;;;;;;;3.43;2.80;;;;;;;10.38;52.01;101223.91;10499006;28;20243;-61
2023/01/03 15:27:37;;;;;;;9.43;7.20;;;;;;;10.22;52.09;101235.22;10517763;28;20231;-60
2023/01/03 15:32:59;;;;;;;5.90;3.90;;;;;;;9.35;53.56;101228.22;10515724;28;20953;-59
2023/01/03 15:38:02;;;;;;;5.97;4.20;;;;;;;11.12;50.75;101275.66;10522650;28;20421;-59
2023/01/03 15:43:20;;;;;;;12.53;9.20;;;;;;;9.08;53.22;101207.53;10518806;28;20711;-61
2023/01/03 15:48:24;;;;;;;7.07;5.33;;;;;;;11.32;49.70;101289.75;10507263;28;20851;-60
2023/01/03 15:53:29;;;;;;;4.57;3.87;;;;;;;9.40;53.70;101226.81;10519815;28;20310;-61
2023/01/03 15:58:31;;;;;;;5.40;4.37;;;;;;;9.41;54.30;101224.97;10506997;22;20231;-35
2023/01/03 16:03:33;;;;;;;4.43;4.03;;;;;;;9.55;53.72;101210.31;10483257;28;20317;-35
2023/01/03 16:08:38;;;;;;;9.27;5.13;;;;;;;9.30;54.58;101228.63;10461863;28;20236;-35
2023/01/03 16:13:44;;;;;;;6.90;4.23;;;;;;;10.31;52.44;101231.69;10454768;28;20250;-35
2023/01/03 16:18:47;;;;;;;6.87;5.23;;;;;;;10.10;52.23;101231.88;10444451;28;20602;-35
2023/01/03 16:23:50;;;;;;;6.50;5.00;;;;;;;9.79;53.49;101217.88;10433311;28;20537;-37
2023/01/03 16:28:52;;;;;;;8.40;6.60;;;;;;;9.06;55.28;101213.00;10430853;28;20246;-37
2023/01/03 16:33:54;;;;;;;6.57;5.10;;;;;;;9.53;54.03;101234.53;10435392;28;20236;-35
2023/01/03 16:38:57;;;;;;;7.60;6.20;;;;;;;9.15;54.30;101230.03;10430862;28;20251;-37
2023/01/03 16:43:59;;;;;;;7.40;5.87;;;;;;;9.51;53.74;101224.97;10438318;28;20314;-37
2023/01/03 16:49:01;;;;;;;8.67;7.57;;;;;;;10.43;52.59;101260.94;10438063;28;20248;-37
2023/01/03 16:54:07;;;;;;;9.67;8.27;;;;;;;11.24;50.72;101297.72;10432468;28;20236;-35
2023/01/03 16:59:14;;;;;;;10.50;8.27;;;;;;;10.74;51.55;101282.91;10431261;28;20713;-34
2023/01/03 17:04:16;;;;;;;8.07;6.90;;;;;;;10.08;52.14;101265.97;10432338;28;20315;-34
2023/01/03 17:09:21;;;;;;;12.17;7.53;;;;;;;10.37;51.49;101264.19;10434883;28;20239;-34
2023/01/03 17:14:23;;;;;;;9.30;7.73;;;;;;;12.15;48.39;101337.75;10441122;28;20250;-35
2023/01/03 17:19:25;;;;;;;8.03;6.80;;;;;;;11.66;48.64;101291.78;10454477;28;20417;-33
2023/01/03 17:24:49;;;;;;;11.17;7.87;;;;;;;11.54;48.97;101290.28;10450280;28;20244;-34
2023/01/03 17:29:58;;;;;;;19.37;13.00;;;;;;;9.99;51.56;101263.31;10451972;28;20263;-35
2023/01/03 17:35:03;;;;;;;16.27;11.53;;;;;;;10.78;50.60;101262.03;10447626;28;20445;-35
2023/01/03 17:40:16;;;;;;;19.00;15.37;;;;;;;9.00;53.18;101233.09;10442893;28;20322;-34
2023/01/03 17:50:39;;;;;;;17.93;12.93;;;;;;;11.33;49.53;101278.03;10449864;28;21437;-35
2023/01/03 17:55:43;;;;;;;9.93;7.80;;;;;;;9.05;53.41;101270.09;10456392;28;20761;-35
2023/01/03 18:00:45;;;;;;;8.70;5.90;;;;;;;8.18;55.11;101203.91;10453640;28;20232;-35
2023/01/03 18:05:47;;;;;;;6.83;5.70;;;;;;;7.94;56.13;101222.91;10456341;28;20240;-35
2023/01/03 18:10:52;;;;;;;6.13;5.10;;;;;;;8.10;55.36;101234.78;10454925;28;20234;-33
2023/01/03 18:15:54;;;;;;;6.10;4.90;;;;;;;8.52;54.84;101232.97;10458132;28;20503;-35
2023/01/03 18:20:56;;;;;;;6.80;5.40;;;;;;;8.37;54.04;101225.34;10456558;28;20259;-35
2023/01/03 18:26:02;;;;;;;8.17;5.40;;;;;;;8.24;53.80;101230.06;10441644;28;20226;-34
2023/01/03 18:31:05;;;;;;;7.63;4.80;;;;;;;8.62;53.49;101239.16;10443370;28;20236;-35
2023/01/03 18:36:43;;;;;;;6.13;4.47;;;;;;;11.22;48.73;101271.06;10449166;28;20612;-34
2023/01/03 18:41:45;;;;;;;32.23;22.80;;;;;;;10.17;49.99;101253.53;10440426;28;20227;-34
2023/01/03 18:46:47;;;;;;;27.77;17.43;;;;;;;10.01;50.52;101264.88;10442929;28;20227;-35
2023/01/03 18:51:52;;;;;;;14.33;10.40;;;;;;;9.96;50.46;101280.50;10444405;28;20243;-35
2023/01/03 18:56:53;;;;;;;23.93;13.40;;;;;;;9.79;50.98;101284.72;10439963;28;20231;-35
2023/01/03 19:01:55;;;;;;;26.37;16.83;;;;;;;10.47;49.70;101273.84;10439872;28;20747;-34
2023/01/03 19:06:57;;;;;;;17.60;11.77;;;;;;;10.70;49.14;101282.34;10443759;28;20782;-34
2023/01/03 19:11:59;;;;;;;12.67;7.23;;;;;;;10.65;48.32;101290.00;10444976;28;20784;-35
2023/01/03 19:17:12;;;;;;;11.47;7.40;;;;;;;10.61;48.93;101299.28;10430168;28;20239;-35
2023/01/03 19:22:23;;;;;;;17.30;12.87;;;;;;;9.55;51.29;101290.50;10439107;28;20246;-35
2023/01/03 19:27:34;;;;;;;14.47;12.70;;;;;;;10.04;49.76;101269.94;10470321;28;20239;-34
2023/01/03 19:32:37;;;;;;;15.07;12.73;;;;;;;9.73;50.06;101287.97;10464151;28;20617;-35
2023/01/03 19:37:38;;;;;;;10.63;9.53;;;;;;;9.98;49.72;101283.88;10477650;28;20240;-33
2023/01/03 19:42:47;;;;;;;12.20;9.23;;;;;;;9.29;50.37;101288.38;10477463;28;20267;-35
2023/01/03 19:47:49;;;;;;;14.80;11.70;;;;;;;8.77;51.50;101285.00;10468013;28;20732;-35
2023/01/03 19:52:55;;;;;;;15.03;10.10;;;;;;;8.79;52.15;101299.94;10472492;28;20240;-35
2023/01/03 19:58:03;;;;;;;11.93;10.30;;;;;;;8.33;53.13;101271.91;10476817;28;20227;-33
2023/01/03 20:03:10;;;;;;;10.00;7.63;;;;;;;7.18;55.44;101186.59;10475843;28;20235;-35
2023/01/03 20:08:12;;;;;;;9.17;7.43;;;;;;;7.33;56.13;101214.59;10440973;28;20572;-34
2023/01/03 20:13:19;;;;;;;8.73;7.60;;;;;;;7.14;57.19;101191.34;10453501;28;20436;-35
2023/01/03 20:18:29;;;;;;;11.73;7.60;;;;;;;8.01;55.26;101229.38;10447850;28;20626;-35
2023/01/03 20:23:35;;;;;;;12.07;8.13;;;;;;;8.39;53.60;101207.38;10459024;28;20248;-35
2023/01/03 20:28:36;;;;;;;10.90;9.70;;;;;;;8.13;54.20;101206.16;10469438;28;20235;-35
2023/01/03 20:33:38;;;;;;;9.57;8.57;;;;;;;8.10;54.67;101205.44;10463150;28;20756;-37
2023/01/03 20:38:44;;;;;;;13.43;8.63;;;;;;;9.28;53.09;101192.34;10452540;28;20232;-37
2023/01/03 20:43:47;;;;;;;16.93;11.50;;;;;;;8.54;53.72;101218.53;10446696;28;20402;-37
2023/01/03 20:48:54;;;;;;;13.87;10.40;;;;;;;8.48;53.52;101209.22;10459937;28;20278;-35
2023/01/03 20:53:56;;;;;;;12.53;7.90;;;;;;;6.56;57.70;101124.25;10463598;28;20638;-35
2023/01/03 20:58:58;;;;;;;11.53;9.13;;;;;;;6.35;59.16;101122.38;10467146;28;20231;-36
2023/01/03 21:04:00;;;;;;;11.77;8.80;;;;;;;7.84;56.03;101154.38;10462719;28;20227;-37
2023/01/03 21:09:01;;;;;;;12.67;10.03;;;;;;;7.87;55.04;101145.28;10470980;28;20769;-34
2023/01/03 21:14:04;;;;;;;13.83;9.67;;;;;;;6.75;57.59;101150.19;10461044;28;20311;-35
2023/01/03 21:19:17;;;;;;;13.57;10.37;;;;;;;6.77;58.80;101138.47;10462157;28;20594;-35
2023/01/03 21:24:21;;;;;;;13.30;9.63;;;;;;;5.89;60.44;101096.78;10464393;28;20623;-35
2023/01/03 21:29:23;;;;;;;10.67;9.17;;;;;;;6.57;58.56;101126.78;10436322;28;20231;-35
2023/01/03 21:34:25;;;;;;;13.90;10.43;;;;;;;7.20;57.94;101123.41;10438238;28;20236;-35
2023/01/03 21:39:27;;;;;;;13.97;10.70;;;;;;;6.66;58.45;101121.69;10484487;28;20292;-35
2023/01/03 21:44:28;;;;;;;12.30;10.13;;;;;;;6.86;58.63;101107.59;10497791;28;20326;-35
2023/01/03 21:49:30;;;;;;;12.57;9.77;;;;;;;6.94;58.57;101114.97;10500382;28;20325;-34
2023/01/03 21:54:32;;;;;;;11.83;9.27;;;;;;;7.58;57.35;101119.31;10487837;28;20235;-34
2023/01/03 21:59:36;;;;;;;13.53;10.53;;;;;;;6.92;57.61;101114.22;10503963;28;20231;-35
2023/01/03 22:04:38;;;;;;;12.73;8.93;;;;;;;6.81;58.21;101118.63;10502162;28;20231;-35
2023/01/03 22:15:00;;;;;;;14.50;10.47;;;;;;;6.98;59.00;101117.22;10497433;28;20256;-33
2023/01/03 22:20:05;;;;;;;14.40;9.90;;;;;;;5.57;61.27;101064.78;10479868;28;20242;-34
2023/01/03 22:25:09;;;;;;;13.43;10.60;;;;;;;5.07;62.82;101051.81;10503538;28;20313;-35
2023/01/03 22:30:16;;;;;;;13.13;10.73;;;;;;;5.95;61.94;101087.50;10504420;28;20428;-36
2023/01/03 22:35:18;;;;;;;13.07;10.77;;;;;;;6.17;60.07;101086.63;10504786;28;20337;-34
2023/01/03 22:40:20;;;;;;;14.00;9.80;;;;;;;7.81;56.10;101095.13;10487214;28;20255;-34
2023/01/03 22:45:22;;;;;;;11.37;9.67;;;;;;;8.32;54.61;101115.56;10494283;28;20731;-34
2023/01/03 22:50:24;;;;;;;12.43;10.33;;;;;;;7.33;55.56;101132.03;10477233;28;20895;-34
2023/01/03 22:55:26;;;;;;;10.87;9.27;;;;;;;7.72;54.98;101148.25;10505087;28;20241;-34
2023/01/03 23:00:32;;;;;;;10.33;8.03;;;;;;;6.37;57.22;101138.19;10492007;28;20235;-34
2023/01/03 23:05:34;;;;;;;10.87;8.07;;;;;;;7.17;56.89;101121.00;10504838;28;20254;-34
2023/01/03 23:10:36;;;;;;;8.63;7.73;;;;;;;7.68;55.03;101132.69;10494278;28;20520;-34
2023/01/03 23:15:38;;;;;;;7.53;6.67;;;;;;;5.82;57.76;101138.97;10498194;28;20745;-34
2023/01/03 23:20:47;;;;;;;6.73;6.03;;;;;;;5.96;59.06;101127.25;10494080;28;20242;-34
2023/01/03 23:25:49;;;;;;;7.60;6.10;;;;;;;6.76;57.83;101114.66;10504265;28;20234;-34
2023/01/03 23:30:50;;;;;;;9.20;6.60;;;;;;;6.63;57.59;101102.34;10499223;28;20231;-34
2023/01/03 23:35:52;;;;;;;8.43;6.53;;;;;;;5.31;60.39;101072.97;10479237;28;20353;-34
2023/01/03 23:40:54;;;;;;;8.07;7.13;;;;;;;5.85;58.78;101106.00;10462351;28;20235;-34
2023/01/03 23:45:57;;;;;;;9.50;7.50;;;;;;;7.69;55.30;101102.38;10474756;28;20259;-34
2023/01/03 23:51:03;;;;;;;8.90;7.10;;;;;;;7.35;55.61;101105.28;10471909;28;20250;-34
2023/01/03 23:56:11;;;;;;;6.77;5.83;;;;;;;7.16;55.54;101088.22;10467522;28;20310;-34
